Forside
METAR-TAF:

METAR-TAF

Lufthavne :

Ängelholm-Helsingborg Lufthavn

Helsingborg, Sverige

Breddekreds: 56-17-46N, længdekreds: 012-50-50E, højde: 21 m

Aktuelle vejr

Denne rapport blev lavet for 7 minutter siden, kl. 14:50 UTC
Vind 11 kt fra nordnordøst
Temperatur 16°C
Fugtighed 39%
Tryk 1024 hPa
Sigt 10 km eller mere

METAR: ESTA 171450Z AUTO 03011KT 9999 FEW180/// 16/02 Q1024

Tid: 16:57 (14:57 UTC)

Vejrudsigter

Denne rapport blev lavet for 55 minutter siden, kl. 14:02 UTC
Foreløbig gælder fra 16 på 15 UTC til 16 på 17 UTC
Vind 18 kt fra nordvest
Sigt 10 km eller mere
ingen skyer under 1500m og ingen cumulonimbus
Midlertidig
fra 16 på 15 UTC til 16 på 17 UTC
Vind 10 kt fra nordnordøst

TAF: ESTA 161402Z 1615/1617 31018KT CAVOK TEMPO 1615/1617 03010KT

Vejrobservationer og prognoser fra mere end 4000 lufthavne (METAR og TAF).

De gule og røde prikker repræsenterer de meteorologiske stationer.

Flyt musen over at se navnet på stationen.

Så klik over at se vejr observationer og prognoser.

At skifte det kort: Klik på de grønne knapper med et sort kors for at zoome ind; på den grønne knap med en bindestreg for at zoome ud; eller på de grønne pile for tilstødende kort.


METAR-TAF: